sensor_id;sensor_type;location;lat;lon;timestamp;temperature;humidity
8910;DHT22;4490;49.072;8.804;2023-02-19T00:01:24;10.50;99.90
8910;DHT22;4490;49.072;8.804;2023-02-19T00:03:55;10.40;99.90
8910;DHT22;4490;49.072;8.804;2023-02-19T00:06:23;10.40;99.90
8910;DHT22;4490;49.072;8.804;2023-02-19T00:08:49;10.40;99.90
8910;DHT22;4490;49.072;8.804;2023-02-19T00:11:17;10.40;99.90
8910;DHT22;4490;49.072;8.804;2023-02-19T00:13:45;10.40;99.90
8910;DHT22;4490;49.072;8.804;2023-02-19T00:16:16;10.30;99.90
8910;DHT22;4490;49.072;8.804;2023-02-19T00:18:43;10.30;99.90
8910;DHT22;4490;49.072;8.804;2023-02-19T00:21:09;10.30;99.90
8910;DHT22;4490;49.072;8.804;2023-02-19T00:23:35;10.30;99.90
8910;DHT22;4490;49.072;8.804;2023-02-19T00:26:02;10.30;99.90
8910;DHT22;4490;49.072;8.804;2023-02-19T00:28:28;10.30;99.90
8910;DHT22;4490;49.072;8.804;2023-02-19T00:30:54;10.30;99.90
8910;DHT22;4490;49.072;8.804;2023-02-19T00:33:20;10.30;99.90
8910;DHT22;4490;49.072;8.804;2023-02-19T00:35:45;10.30;99.90
8910;DHT22;4490;49.072;8.804;2023-02-19T00:38:11;10.30;99.90
8910;DHT22;4490;49.072;8.804;2023-02-19T00:40:37;10.30;99.90
8910;DHT22;4490;49.072;8.804;2023-02-19T00:43:03;10.30;99.90
8910;DHT22;4490;49.072;8.804;2023-02-19T00:45:28;10.30;99.90
8910;DHT22;4490;49.072;8.804;2023-02-19T00:47:54;10.30;99.90
8910;DHT22;4490;49.072;8.804;2023-02-19T00:50:20;10.30;99.90
8910;DHT22;4490;49.072;8.804;2023-02-19T00:52:46;10.30;99.90
8910;DHT22;4490;49.072;8.804;2023-02-19T00:55:11;10.30;99.90
8910;DHT22;4490;49.072;8.804;2023-02-19T00:57:37;10.30;99.90
8910;DHT22;4490;49.072;8.804;2023-02-19T01:00:03;10.30;99.90
8910;DHT22;4490;49.072;8.804;2023-02-19T01:02:31;10.30;99.90
8910;DHT22;4490;49.072;8.804;2023-02-19T01:04:56;10.30;99.90
8910;DHT22;4490;49.072;8.804;2023-02-19T01:07:22;10.30;99.90
8910;DHT22;4490;49.072;8.804;2023-02-19T01:09:48;10.30;99.90
8910;DHT22;4490;49.072;8.804;2023-02-19T01:12:14;10.30;99.90
8910;DHT22;4490;49.072;8.804;2023-02-19T01:14:39;10.40;99.90
8910;DHT22;4490;49.072;8.804;2023-02-19T01:17:05;10.40;99.90
8910;DHT22;4490;49.072;8.804;2023-02-19T01:19:30;10.40;99.90
8910;DHT22;4490;49.072;8.804;2023-02-19T01:21:56;10.40;99.90
8910;DHT22;4490;49.072;8.804;2023-02-19T01:24:21;10.40;99.90
8910;DHT22;4490;49.072;8.804;2023-02-19T01:26:47;10.40;99.90
8910;DHT22;4490;49.072;8.804;2023-02-19T01:29:13;10.40;99.90
8910;DHT22;4490;49.072;8.804;2023-02-19T01:31:38;10.30;99.90
8910;DHT22;4490;49.072;8.804;2023-02-19T01:34:08;10.30;99.90
8910;DHT22;4490;49.072;8.804;2023-02-19T01:36:34;10.30;99.90
8910;DHT22;4490;49.072;8.804;2023-02-19T01:39:02;10.20;99.90
8910;DHT22;4490;49.072;8.804;2023-02-19T01:41:30;10.20;99.90
8910;DHT22;4490;49.072;8.804;2023-02-19T01:46:28;10.10;99.90
8910;DHT22;4490;49.072;8.804;2023-02-19T01:48:56;10.00;99.90
8910;DHT22;4490;49.072;8.804;2023-02-19T01:51:22;10.00;99.90
8910;DHT22;4490;49.072;8.804;2023-02-19T01:53:54;10.00;99.90
8910;DHT22;4490;49.072;8.804;2023-02-19T01:56:22;10.00;99.90
8910;DHT22;4490;49.072;8.804;2023-02-19T01:58:49;10.00;99.90
8910;DHT22;4490;49.072;8.804;2023-02-19T02:01:15;10.00;99.90
8910;DHT22;4490;49.072;8.804;2023-02-19T02:03:42;9.90;99.90
8910;DHT22;4490;49.072;8.804;2023-02-19T02:06:29;9.90;99.90
8910;DHT22;4490;49.072;8.804;2023-02-19T02:08:57;9.90;99.90
8910;DHT22;4490;49.072;8.804;2023-02-19T02:11:50;9.90;99.90
8910;DHT22;4490;49.072;8.804;2023-02-19T02:14:24;9.90;99.90
8910;DHT22;4490;49.072;8.804;2023-02-19T02:17:05;9.80;99.90
8910;DHT22;4490;49.072;8.804;2023-02-19T02:30:49;9.80;99.90
8910;DHT22;4490;49.072;8.804;2023-02-19T02:33:37;9.80;99.90
8910;DHT22;4490;49.072;8.804;2023-02-19T02:36:28;9.80;99.90
8910;DHT22;4490;49.072;8.804;2023-02-19T02:38:51;9.80;99.90
8910;DHT22;4490;49.072;8.804;2023-02-19T02:41:19;9.80;99.90
8910;DHT22;4490;49.072;8.804;2023-02-19T02:43:45;9.80;99.90
8910;DHT22;4490;49.072;8.804;2023-02-19T02:46:12;9.80;99.90
8910;DHT22;4490;49.072;8.804;2023-02-19T02:48:45;9.80;99.90
8910;DHT22;4490;49.072;8.804;2023-02-19T02:56:49;9.90;99.90
8910;DHT22;4490;49.072;8.804;2023-02-19T02:59:18;9.80;99.90
8910;DHT22;4490;49.072;8.804;2023-02-19T03:01:50;9.80;99.90
8910;DHT22;4490;49.072;8.804;2023-02-19T03:11:05;9.80;99.90
8910;DHT22;4490;49.072;8.804;2023-02-19T03:13:55;9.80;99.90
8910;DHT22;4490;49.072;8.804;2023-02-19T03:16:42;9.80;99.90
8910;DHT22;4490;49.072;8.804;2023-02-19T03:19:28;9.80;99.90
8910;DHT22;4490;49.072;8.804;2023-02-19T03:22:14;9.90;99.90
8910;DHT22;4490;49.072;8.804;2023-02-19T03:24:48;9.90;99.90
8910;DHT22;4490;49.072;8.804;2023-02-19T03:27:33;9.90;99.90
8910;DHT22;4490;49.072;8.804;2023-02-19T03:30:04;9.90;99.90
8910;DHT22;4490;49.072;8.804;2023-02-19T03:32:54;9.90;99.90
8910;DHT22;4490;49.072;8.804;2023-02-19T03:35:24;9.90;99.90
8910;DHT22;4490;49.072;8.804;2023-02-19T03:38:05;9.90;99.90
8910;DHT22;4490;49.072;8.804;2023-02-19T03:40:44;9.90;99.90
8910;DHT22;4490;49.072;8.804;2023-02-19T03:43:23;9.90;99.90
8910;DHT22;4490;49.072;8.804;2023-02-19T03:45:57;9.90;99.90
8910;DHT22;4490;49.072;8.804;2023-02-19T03:48:35;10.00;99.90
8910;DHT22;4490;49.072;8.804;2023-02-19T03:51:40;10.00;99.90
8910;DHT22;4490;49.072;8.804;2023-02-19T03:56:57;10.00;99.90
8910;DHT22;4490;49.072;8.804;2023-02-19T04:00:03;10.00;99.90
8910;DHT22;4490;49.072;8.804;2023-02-19T04:05:23;10.00;99.90
8910;DHT22;4490;49.072;8.804;2023-02-19T04:07:54;10.00;99.90
8910;DHT22;4490;49.072;8.804;2023-02-19T04:10:22;9.90;99.90
8910;DHT22;4490;49.072;8.804;2023-02-19T04:12:53;9.90;99.90
8910;DHT22;4490;49.072;8.804;2023-02-19T04:15:23;9.90;99.90
8910;DHT22;4490;49.072;8.804;2023-02-19T04:18:18;9.90;99.90
8910;DHT22;4490;49.072;8.804;2023-02-19T04:20:47;9.90;99.90
8910;DHT22;4490;49.072;8.804;2023-02-19T04:23:16;9.90;99.90
8910;DHT22;4490;49.072;8.804;2023-02-19T04:25:47;9.90;99.90
8910;DHT22;4490;49.072;8.804;2023-02-19T04:28:14;9.90;99.90
8910;DHT22;4490;49.072;8.804;2023-02-19T04:30:41;9.90;99.90
8910;DHT22;4490;49.072;8.804;2023-02-19T04:33:07;9.90;99.90
8910;DHT22;4490;49.072;8.804;2023-02-19T04:35:33;9.90;99.90
8910;DHT22;4490;49.072;8.804;2023-02-19T04:37:59;9.90;99.90
8910;DHT22;4490;49.072;8.804;2023-02-19T04:40:24;9.80;99.90
8910;DHT22;4490;49.072;8.804;2023-02-19T04:42:50;9.80;99.90
8910;DHT22;4490;49.072;8.804;2023-02-19T04:45:16;9.80;99.90
8910;DHT22;4490;49.072;8.804;2023-02-19T04:47:41;9.80;99.90
8910;DHT22;4490;49.072;8.804;2023-02-19T04:50:07;9.80;99.90
8910;DHT22;4490;49.072;8.804;2023-02-19T04:52:32;9.80;99.90
8910;DHT22;4490;49.072;8.804;2023-02-19T04:54:58;9.80;99.90
8910;DHT22;4490;49.072;8.804;2023-02-19T04:57:24;9.80;99.90
8910;DHT22;4490;49.072;8.804;2023-02-19T04:59:49;9.80;99.90
8910;DHT22;4490;49.072;8.804;2023-02-19T05:02:15;9.80;99.90
8910;DHT22;4490;49.072;8.804;2023-02-19T05:04:40;9.70;99.90
8910;DHT22;4490;49.072;8.804;2023-02-19T05:07:06;9.70;99.90
8910;DHT22;4490;49.072;8.804;2023-02-19T05:09:32;9.70;99.90
8910;DHT22;4490;49.072;8.804;2023-02-19T05:11:57;9.60;99.90
8910;DHT22;4490;49.072;8.804;2023-02-19T05:14:23;9.70;99.90
8910;DHT22;4490;49.072;8.804;2023-02-19T05:16:48;9.70;99.90
8910;DHT22;4490;49.072;8.804;2023-02-19T05:19:14;9.70;99.90
8910;DHT22;4490;49.072;8.804;2023-02-19T05:21:40;9.60;99.90
8910;DHT22;4490;49.072;8.804;2023-02-19T05:24:06;9.70;99.90
8910;DHT22;4490;49.072;8.804;2023-02-19T05:26:31;9.60;99.90
8910;DHT22;4490;49.072;8.804;2023-02-19T05:28:58;9.60;99.90
8910;DHT22;4490;49.072;8.804;2023-02-19T05:31:24;9.60;99.90
8910;DHT22;4490;49.072;8.804;2023-02-19T05:33:50;9.60;99.90
8910;DHT22;4490;49.072;8.804;2023-02-19T05:36:18;9.60;99.90
8910;DHT22;4490;49.072;8.804;2023-02-19T05:38:45;9.50;99.90
8910;DHT22;4490;49.072;8.804;2023-02-19T05:41:17;9.50;99.90
8910;DHT22;4490;49.072;8.804;2023-02-19T05:43:44;9.50;99.90
8910;DHT22;4490;49.072;8.804;2023-02-19T05:46:12;9.50;99.90
8910;DHT22;4490;49.072;8.804;2023-02-19T05:48:38;9.50;99.90
8910;DHT22;4490;49.072;8.804;2023-02-19T05:51:09;9.50;99.90
8910;DHT22;4490;49.072;8.804;2023-02-19T05:53:36;9.50;99.90
8910;DHT22;4490;49.072;8.804;2023-02-19T05:56:02;9.50;99.90
8910;DHT22;4490;49.072;8.804;2023-02-19T05:58:28;9.50;99.90
8910;DHT22;4490;49.072;8.804;2023-02-19T06:00:54;9.50;99.90
8910;DHT22;4490;49.072;8.804;2023-02-19T06:03:20;9.50;99.90
8910;DHT22;4490;49.072;8.804;2023-02-19T06:05:46;9.60;99.90
8910;DHT22;4490;49.072;8.804;2023-02-19T06:08:13;9.50;99.90
8910;DHT22;4490;49.072;8.804;2023-02-19T06:10:39;9.60;99.90
8910;DHT22;4490;49.072;8.804;2023-02-19T06:13:06;9.60;99.90
8910;DHT22;4490;49.072;8.804;2023-02-19T06:15:32;9.60;99.90
8910;DHT22;4490;49.072;8.804;2023-02-19T06:17:58;9.50;99.90
8910;DHT22;4490;49.072;8.804;2023-02-19T06:20:24;9.50;99.90
8910;DHT22;4490;49.072;8.804;2023-02-19T06:22:50;9.50;99.90
8910;DHT22;4490;49.072;8.804;2023-02-19T06:25:16;9.50;99.90
8910;DHT22;4490;49.072;8.804;2023-02-19T06:27:42;9.50;99.90
8910;DHT22;4490;49.072;8.804;2023-02-19T06:30:08;9.50;99.90
8910;DHT22;4490;49.072;8.804;2023-02-19T06:32:34;9.50;99.90
8910;DHT22;4490;49.072;8.804;2023-02-19T06:34:59;9.60;99.90
8910;DHT22;4490;49.072;8.804;2023-02-19T06:37:25;9.60;99.90
8910;DHT22;4490;49.072;8.804;2023-02-19T06:39:50;9.50;99.90
8910;DHT22;4490;49.072;8.804;2023-02-19T06:42:16;9.50;99.90
8910;DHT22;4490;49.072;8.804;2023-02-19T06:44:41;9.50;99.90
8910;DHT22;4490;49.072;8.804;2023-02-19T06:47:07;9.50;99.90
8910;DHT22;4490;49.072;8.804;2023-02-19T06:49:33;9.50;99.90
8910;DHT22;4490;49.072;8.804;2023-02-19T06:51:58;9.60;99.90
8910;DHT22;4490;49.072;8.804;2023-02-19T06:54:25;9.60;99.90
8910;DHT22;4490;49.072;8.804;2023-02-19T06:56:51;9.50;99.90
8910;DHT22;4490;49.072;8.804;2023-02-19T06:59:16;9.50;99.90
8910;DHT22;4490;49.072;8.804;2023-02-19T07:01:43;9.50;99.90
8910;DHT22;4490;49.072;8.804;2023-02-19T07:04:08;9.50;99.90
8910;DHT22;4490;49.072;8.804;2023-02-19T07:06:35;9.40;99.90
8910;DHT22;4490;49.072;8.804;2023-02-19T07:09:02;9.40;99.90
8910;DHT22;4490;49.072;8.804;2023-02-19T07:11:29;9.30;99.90
8910;DHT22;4490;49.072;8.804;2023-02-19T07:13:58;9.30;99.90
8910;DHT22;4490;49.072;8.804;2023-02-19T07:16:24;9.30;99.90
8910;DHT22;4490;49.072;8.804;2023-02-19T07:18:50;9.30;99.90
8910;DHT22;4490;49.072;8.804;2023-02-19T07:21:16;9.30;99.90
8910;DHT22;4490;49.072;8.804;2023-02-19T07:23:43;9.20;99.90
8910;DHT22;4490;49.072;8.804;2023-02-19T07:26:14;9.20;99.90
8910;DHT22;4490;49.072;8.804;2023-02-19T07:28:45;9.20;99.90
8910;DHT22;4490;49.072;8.804;2023-02-19T07:31:11;9.20;99.90
8910;DHT22;4490;49.072;8.804;2023-02-19T07:33:37;9.20;99.90
8910;DHT22;4490;49.072;8.804;2023-02-19T07:36:06;9.20;99.90
8910;DHT22;4490;49.072;8.804;2023-02-19T07:38:31;9.30;99.90
8910;DHT22;4490;49.072;8.804;2023-02-19T07:40:59;9.30;99.90
8910;DHT22;4490;49.072;8.804;2023-02-19T07:43:26;9.30;99.90
8910;DHT22;4490;49.072;8.804;2023-02-19T07:45:52;9.30;99.90
8910;DHT22;4490;49.072;8.804;2023-02-19T07:48:18;9.30;99.90
8910;DHT22;4490;49.072;8.804;2023-02-19T07:50:58;9.40;99.90
8910;DHT22;4490;49.072;8.804;2023-02-19T07:53:25;9.40;99.90
8910;DHT22;4490;49.072;8.804;2023-02-19T07:55:52;9.40;99.90
8910;DHT22;4490;49.072;8.804;2023-02-19T07:58:18;9.40;99.90
8910;DHT22;4490;49.072;8.804;2023-02-19T08:00:44;9.40;99.90
8910;DHT22;4490;49.072;8.804;2023-02-19T08:03:10;9.30;99.90
8910;DHT22;4490;49.072;8.804;2023-02-19T08:05:40;9.30;99.90
8910;DHT22;4490;49.072;8.804;2023-02-19T08:08:11;9.30;99.90
8910;DHT22;4490;49.072;8.804;2023-02-19T08:10:37;9.30;99.90
8910;DHT22;4490;49.072;8.804;2023-02-19T08:13:21;9.40;99.90
8910;DHT22;4490;49.072;8.804;2023-02-19T08:15:52;9.50;99.90
8910;DHT22;4490;49.072;8.804;2023-02-19T08:18:23;9.60;99.90
8910;DHT22;4490;49.072;8.804;2023-02-19T08:20:49;9.70;99.90
8910;DHT22;4490;49.072;8.804;2023-02-19T08:23:15;9.70;99.90
8910;DHT22;4490;49.072;8.804;2023-02-19T08:25:42;9.70;99.90
8910;DHT22;4490;49.072;8.804;2023-02-19T08:28:09;9.60;99.90
8910;DHT22;4490;49.072;8.804;2023-02-19T08:30:36;9.60;99.90
8910;DHT22;4490;49.072;8.804;2023-02-19T08:33:03;9.60;99.90
8910;DHT22;4490;49.072;8.804;2023-02-19T08:35:29;9.70;99.90
8910;DHT22;4490;49.072;8.804;2023-02-19T08:37:58;9.70;99.90
8910;DHT22;4490;49.072;8.804;2023-02-19T08:40:25;9.70;99.90
8910;DHT22;4490;49.072;8.804;2023-02-19T08:42:51;9.80;99.90
8910;DHT22;4490;49.072;8.804;2023-02-19T08:45:17;9.80;99.90
8910;DHT22;4490;49.072;8.804;2023-02-19T08:47:43;9.80;99.90
8910;DHT22;4490;49.072;8.804;2023-02-19T08:50:09;9.80;99.90
8910;DHT22;4490;49.072;8.804;2023-02-19T08:52:36;9.80;99.90
8910;DHT22;4490;49.072;8.804;2023-02-19T08:55:05;9.90;99.90
8910;DHT22;4490;49.072;8.804;2023-02-19T08:57:30;9.90;99.90
8910;DHT22;4490;49.072;8.804;2023-02-19T08:59:56;10.00;99.90
8910;DHT22;4490;49.072;8.804;2023-02-19T09:02:23;9.90;99.90
8910;DHT22;4490;49.072;8.804;2023-02-19T09:04:49;10.00;99.90
8910;DHT22;4490;49.072;8.804;2023-02-19T09:07:15;10.00;99.90
8910;DHT22;4490;49.072;8.804;2023-02-19T09:09:41;10.00;99.90
8910;DHT22;4490;49.072;8.804;2023-02-19T09:12:08;10.00;99.90
8910;DHT22;4490;49.072;8.804;2023-02-19T09:14:35;10.10;99.90
8910;DHT22;4490;49.072;8.804;2023-02-19T09:17:02;10.10;99.90
8910;DHT22;4490;49.072;8.804;2023-02-19T09:19:28;10.30;99.90
8910;DHT22;4490;49.072;8.804;2023-02-19T09:21:54;10.40;99.90
8910;DHT22;4490;49.072;8.804;2023-02-19T09:24:20;10.50;99.90
8910;DHT22;4490;49.072;8.804;2023-02-19T09:26:48;10.60;99.90
8910;DHT22;4490;49.072;8.804;2023-02-19T09:29:14;10.60;99.90
8910;DHT22;4490;49.072;8.804;2023-02-19T09:31:40;10.70;99.90
8910;DHT22;4490;49.072;8.804;2023-02-19T09:34:06;10.70;99.90
8910;DHT22;4490;49.072;8.804;2023-02-19T09:36:31;10.80;99.90
8910;DHT22;4490;49.072;8.804;2023-02-19T09:38:58;10.90;99.90
8910;DHT22;4490;49.072;8.804;2023-02-19T09:41:30;11.00;99.90
8910;DHT22;4490;49.072;8.804;2023-02-19T09:43:59;11.10;99.90
8910;DHT22;4490;49.072;8.804;2023-02-19T09:46:32;11.20;99.90
8910;DHT22;4490;49.072;8.804;2023-02-19T09:49:10;11.30;99.90
8910;DHT22;4490;49.072;8.804;2023-02-19T09:51:38;11.40;99.90
8910;DHT22;4490;49.072;8.804;2023-02-19T09:54:09;11.40;99.90
8910;DHT22;4490;49.072;8.804;2023-02-19T09:56:36;11.40;99.90
8910;DHT22;4490;49.072;8.804;2023-02-19T09:59:02;11.50;99.90
8910;DHT22;4490;49.072;8.804;2023-02-19T10:01:31;11.60;99.90
8910;DHT22;4490;49.072;8.804;2023-02-19T10:03:59;11.70;99.90
8910;DHT22;4490;49.072;8.804;2023-02-19T10:06:27;11.80;99.90
8910;DHT22;4490;49.072;8.804;2023-02-19T10:09:23;11.90;99.90
8910;DHT22;4490;49.072;8.804;2023-02-19T10:11:53;12.00;99.90
8910;DHT22;4490;49.072;8.804;2023-02-19T10:14:47;11.90;99.90
8910;DHT22;4490;49.072;8.804;2023-02-19T10:17:23;12.00;99.90
8910;DHT22;4490;49.072;8.804;2023-02-19T10:19:50;12.10;99.90
8910;DHT22;4490;49.072;8.804;2023-02-19T10:22:16;12.00;99.90
8910;DHT22;4490;49.072;8.804;2023-02-19T10:24:42;11.90;99.90
8910;DHT22;4490;49.072;8.804;2023-02-19T10:27:12;11.80;99.90
8910;DHT22;4490;49.072;8.804;2023-02-19T10:29:38;11.70;99.90
8910;DHT22;4490;49.072;8.804;2023-02-19T10:32:24;11.60;99.90
8910;DHT22;4490;49.072;8.804;2023-02-19T10:35:15;11.70;99.90
8910;DHT22;4490;49.072;8.804;2023-02-19T10:37:47;11.60;99.90
8910;DHT22;4490;49.072;8.804;2023-02-19T10:40:19;11.70;99.90
8910;DHT22;4490;49.072;8.804;2023-02-19T10:42:52;11.70;99.90
8910;DHT22;4490;49.072;8.804;2023-02-19T10:45:44;11.70;99.90
8910;DHT22;4490;49.072;8.804;2023-02-19T10:48:23;11.70;99.90
8910;DHT22;4490;49.072;8.804;2023-02-19T10:50:54;11.80;99.90
8910;DHT22;4490;49.072;8.804;2023-02-19T10:53:41;11.80;99.90
8910;DHT22;4490;49.072;8.804;2023-02-19T10:56:21;11.90;99.90
8910;DHT22;4490;49.072;8.804;2023-02-19T10:58:47;11.90;99.90
8910;DHT22;4490;49.072;8.804;2023-02-19T11:03:40;12.00;99.90
8910;DHT22;4490;49.072;8.804;2023-02-19T11:06:08;12.00;99.90
8910;DHT22;4490;49.072;8.804;2023-02-19T11:08:56;12.00;99.90
8910;DHT22;4490;49.072;8.804;2023-02-19T11:11:39;12.00;99.90
8910;DHT22;4490;49.072;8.804;2023-02-19T11:14:14;11.90;99.90
8910;DHT22;4490;49.072;8.804;2023-02-19T11:16:49;11.90;99.90
8910;DHT22;4490;49.072;8.804;2023-02-19T11:19:38;11.90;99.90
8910;DHT22;4490;49.072;8.804;2023-02-19T11:22:37;11.90;99.90
8910;DHT22;4490;49.072;8.804;2023-02-19T11:27:34;12.00;99.90
8910;DHT22;4490;49.072;8.804;2023-02-19T11:32:56;12.00;99.90
8910;DHT22;4490;49.072;8.804;2023-02-19T11:35:22;12.00;99.90
8910;DHT22;4490;49.072;8.804;2023-02-19T11:38:10;11.90;99.90
8910;DHT22;4490;49.072;8.804;2023-02-19T11:40:49;11.90;99.90
8910;DHT22;4490;49.072;8.804;2023-02-19T11:48:51;12.00;99.90
8910;DHT22;4490;49.072;8.804;2023-02-19T11:51:36;12.00;99.90
8910;DHT22;4490;49.072;8.804;2023-02-19T11:57:00;12.10;99.90
8910;DHT22;4490;49.072;8.804;2023-02-19T12:05:32;12.20;99.90
8910;DHT22;4490;49.072;8.804;2023-02-19T12:08:04;12.30;99.90
8910;DHT22;4490;49.072;8.804;2023-02-19T12:13:26;12.10;99.90
8910;DHT22;4490;49.072;8.804;2023-02-19T12:16:58;12.10;99.90
8910;DHT22;4490;49.072;8.804;2023-02-19T12:24:41;11.80;99.90
8910;DHT22;4490;49.072;8.804;2023-02-19T12:42:05;11.60;99.90
8910;DHT22;4490;49.072;8.804;2023-02-19T12:44:42;11.60;99.90
8910;DHT22;4490;49.072;8.804;2023-02-19T12:47:19;11.60;99.90
8910;DHT22;4490;49.072;8.804;2023-02-19T12:52:40;11.70;99.90
8910;DHT22;4490;49.072;8.804;2023-02-19T12:57:46;11.80;99.90
8910;DHT22;4490;49.072;8.804;2023-02-19T13:03:07;11.90;99.90
8910;DHT22;4490;49.072;8.804;2023-02-19T13:08:39;12.00;99.90
8910;DHT22;4490;49.072;8.804;2023-02-19T13:11:12;12.00;99.90
8910;DHT22;4490;49.072;8.804;2023-02-19T13:13:51;12.00;99.90
8910;DHT22;4490;49.072;8.804;2023-02-19T13:16:20;11.90;99.90
8910;DHT22;4490;49.072;8.804;2023-02-19T13:18:53;12.00;99.90
8910;DHT22;4490;49.072;8.804;2023-02-19T13:21:23;12.00;99.90
8910;DHT22;4490;49.072;8.804;2023-02-19T13:24:12;12.10;99.90
8910;DHT22;4490;49.072;8.804;2023-02-19T13:37:37;12.30;99.90
8910;DHT22;4490;49.072;8.804;2023-02-19T13:42:58;12.40;99.90
8910;DHT22;4490;49.072;8.804;2023-02-19T13:45:37;12.50;99.90
8910;DHT22;4490;49.072;8.804;2023-02-19T13:48:37;12.40;99.90
8910;DHT22;4490;49.072;8.804;2023-02-19T14:09:43;12.70;99.50
8910;DHT22;4490;49.072;8.804;2023-02-19T14:12:19;12.70;96.10
8910;DHT22;4490;49.072;8.804;2023-02-19T14:25:39;12.50;93.60
8910;DHT22;4490;49.072;8.804;2023-02-19T14:28:34;12.50;93.20
8910;DHT22;4490;49.072;8.804;2023-02-19T14:31:26;12.40;93.40
8910;DHT22;4490;49.072;8.804;2023-02-19T14:34:02;12.50;93.80
8910;DHT22;4490;49.072;8.804;2023-02-19T14:36:41;12.50;93.00
8910;DHT22;4490;49.072;8.804;2023-02-19T14:39:19;12.40;93.80
8910;DHT22;4490;49.072;8.804;2023-02-19T14:42:16;12.40;93.70
8910;DHT22;4490;49.072;8.804;2023-02-19T14:44:49;12.40;93.00
8910;DHT22;4490;49.072;8.804;2023-02-19T14:47:20;12.40;94.70
8910;DHT22;4490;49.072;8.804;2023-02-19T14:50:01;12.30;93.90
8910;DHT22;4490;49.072;8.804;2023-02-19T14:52:52;12.30;94.30
8910;DHT22;4490;49.072;8.804;2023-02-19T14:57:49;12.30;94.40
8910;DHT22;4490;49.072;8.804;2023-02-19T15:00:25;12.30;94.30
8910;DHT22;4490;49.072;8.804;2023-02-19T15:02:53;12.40;94.60
8910;DHT22;4490;49.072;8.804;2023-02-19T15:05:29;12.30;94.70
8910;DHT22;4490;49.072;8.804;2023-02-19T15:08:01;12.30;95.20
8910;DHT22;4490;49.072;8.804;2023-02-19T15:10:29;12.40;95.20
8910;DHT22;4490;49.072;8.804;2023-02-19T15:12:59;12.40;95.40
8910;DHT22;4490;49.072;8.804;2023-02-19T15:15:30;12.40;95.10
8910;DHT22;4490;49.072;8.804;2023-02-19T15:17:58;12.40;95.00
8910;DHT22;4490;49.072;8.804;2023-02-19T15:20:28;12.30;94.70
8910;DHT22;4490;49.072;8.804;2023-02-19T15:22:55;12.30;94.70
8910;DHT22;4490;49.072;8.804;2023-02-19T15:25:28;12.20;94.50
8910;DHT22;4490;49.072;8.804;2023-02-19T15:27:54;12.20;94.70
8910;DHT22;4490;49.072;8.804;2023-02-19T15:30:27;12.20;94.80
8910;DHT22;4490;49.072;8.804;2023-02-19T15:32:58;12.20;95.00
8910;DHT22;4490;49.072;8.804;2023-02-19T15:35:26;12.20;94.20
8910;DHT22;4490;49.072;8.804;2023-02-19T15:37:53;12.10;94.10
8910;DHT22;4490;49.072;8.804;2023-02-19T15:40:27;12.00;93.70
8910;DHT22;4490;49.072;8.804;2023-02-19T15:42:54;12.00;94.00
8910;DHT22;4490;49.072;8.804;2023-02-19T15:45:30;12.00;93.50
8910;DHT22;4490;49.072;8.804;2023-02-19T15:48:13;11.90;92.90
8910;DHT22;4490;49.072;8.804;2023-02-19T15:50:43;11.80;93.20
8910;DHT22;4490;49.072;8.804;2023-02-19T15:53:29;11.80;93.30
8910;DHT22;4490;49.072;8.804;2023-02-19T16:01:02;11.70;93.90
8910;DHT22;4490;49.072;8.804;2023-02-19T16:03:29;11.70;94.20
8910;DHT22;4490;49.072;8.804;2023-02-19T16:06:03;11.60;94.30
8910;DHT22;4490;49.072;8.804;2023-02-19T16:08:35;11.60;94.70
8910;DHT22;4490;49.072;8.804;2023-02-19T16:11:03;11.60;95.10
8910;DHT22;4490;49.072;8.804;2023-02-19T16:13:31;11.50;95.40
8910;DHT22;4490;49.072;8.804;2023-02-19T16:16:05;11.50;95.70
8910;DHT22;4490;49.072;8.804;2023-02-19T16:18:31;11.50;96.00
8910;DHT22;4490;49.072;8.804;2023-02-19T16:21:06;11.50;96.20
8910;DHT22;4490;49.072;8.804;2023-02-19T16:23:32;11.50;96.50
8910;DHT22;4490;49.072;8.804;2023-02-19T16:26:00;11.50;96.90
8910;DHT22;4490;49.072;8.804;2023-02-19T16:28:27;11.50;97.40
8910;DHT22;4490;49.072;8.804;2023-02-19T16:31:04;11.40;97.70
8910;DHT22;4490;49.072;8.804;2023-02-19T16:33:31;11.40;98.10
8910;DHT22;4490;49.072;8.804;2023-02-19T16:41:24;11.30;99.60
8910;DHT22;4490;49.072;8.804;2023-02-19T16:43:50;11.30;99.90
8910;DHT22;4490;49.072;8.804;2023-02-19T16:46:15;11.20;99.90
8910;DHT22;4490;49.072;8.804;2023-02-19T16:48:41;11.20;99.90
8910;DHT22;4490;49.072;8.804;2023-02-19T16:51:20;11.10;99.90
8910;DHT22;4490;49.072;8.804;2023-02-19T16:53:47;11.20;99.90
8910;DHT22;4490;49.072;8.804;2023-02-19T16:56:16;11.10;99.90
8910;DHT22;4490;49.072;8.804;2023-02-19T16:58:43;11.10;99.90
8910;DHT22;4490;49.072;8.804;2023-02-19T17:01:08;11.00;99.90
8910;DHT22;4490;49.072;8.804;2023-02-19T17:03:37;11.00;99.90
8910;DHT22;4490;49.072;8.804;2023-02-19T17:06:03;11.00;99.90
8910;DHT22;4490;49.072;8.804;2023-02-19T17:08:40;10.90;99.90
8910;DHT22;4490;49.072;8.804;2023-02-19T17:11:11;10.90;99.90
8910;DHT22;4490;49.072;8.804;2023-02-19T17:13:37;10.90;99.90
8910;DHT22;4490;49.072;8.804;2023-02-19T17:16:03;10.90;99.90
8910;DHT22;4490;49.072;8.804;2023-02-19T17:18:29;11.00;99.90
8910;DHT22;4490;49.072;8.804;2023-02-19T17:23:39;10.90;99.90
8910;DHT22;4490;49.072;8.804;2023-02-19T17:26:04;10.90;99.90
8910;DHT22;4490;49.072;8.804;2023-02-19T17:28:30;10.80;99.90
8910;DHT22;4490;49.072;8.804;2023-02-19T17:30:56;10.80;99.90
8910;DHT22;4490;49.072;8.804;2023-02-19T17:33:21;10.80;99.90
8910;DHT22;4490;49.072;8.804;2023-02-19T17:35:47;10.80;99.90
8910;DHT22;4490;49.072;8.804;2023-02-19T17:38:13;10.80;99.90
8910;DHT22;4490;49.072;8.804;2023-02-19T17:40:39;10.80;99.90
8910;DHT22;4490;49.072;8.804;2023-02-19T17:43:05;10.80;99.90
8910;DHT22;4490;49.072;8.804;2023-02-19T17:45:31;10.80;99.90
8910;DHT22;4490;49.072;8.804;2023-02-19T17:47:58;10.90;99.90
8910;DHT22;4490;49.072;8.804;2023-02-19T17:50:27;10.80;99.90
8910;DHT22;4490;49.072;8.804;2023-02-19T17:52:53;10.90;99.90
8910;DHT22;4490;49.072;8.804;2023-02-19T17:55:18;10.80;99.90
8910;DHT22;4490;49.072;8.804;2023-02-19T17:57:45;10.80;99.90
8910;DHT22;4490;49.072;8.804;2023-02-19T18:00:16;10.90;99.90
8910;DHT22;4490;49.072;8.804;2023-02-19T18:02:42;10.90;99.90
8910;DHT22;4490;49.072;8.804;2023-02-19T18:05:07;10.80;99.90
8910;DHT22;4490;49.072;8.804;2023-02-19T18:07:33;10.80;99.90
8910;DHT22;4490;49.072;8.804;2023-02-19T18:09:58;10.80;99.90
8910;DHT22;4490;49.072;8.804;2023-02-19T18:12:24;10.80;99.90
8910;DHT22;4490;49.072;8.804;2023-02-19T18:14:51;10.80;99.90
8910;DHT22;4490;49.072;8.804;2023-02-19T18:17:19;10.80;99.90
8910;DHT22;4490;49.072;8.804;2023-02-19T18:19:44;10.80;99.90
8910;DHT22;4490;49.072;8.804;2023-02-19T18:22:10;10.80;99.90
8910;DHT22;4490;49.072;8.804;2023-02-19T18:24:36;10.80;99.90
8910;DHT22;4490;49.072;8.804;2023-02-19T18:27:01;10.80;99.90
8910;DHT22;4490;49.072;8.804;2023-02-19T18:29:27;10.80;99.90
8910;DHT22;4490;49.072;8.804;2023-02-19T18:31:54;10.70;99.90
8910;DHT22;4490;49.072;8.804;2023-02-19T18:34:20;10.70;99.90
8910;DHT22;4490;49.072;8.804;2023-02-19T18:36:47;10.70;99.90
8910;DHT22;4490;49.072;8.804;2023-02-19T18:39:13;10.70;99.90
8910;DHT22;4490;49.072;8.804;2023-02-19T18:41:39;10.70;99.90
8910;DHT22;4490;49.072;8.804;2023-02-19T18:44:05;10.70;99.90
8910;DHT22;4490;49.072;8.804;2023-02-19T18:46:31;10.70;99.90
8910;DHT22;4490;49.072;8.804;2023-02-19T18:48:56;10.70;99.90
8910;DHT22;4490;49.072;8.804;2023-02-19T18:51:22;10.60;99.90
8910;DHT22;4490;49.072;8.804;2023-02-19T18:53:48;10.60;99.90